Time;durP1;ratioP1;P1;durP2;ratioP2;P2;SDS_P1;SDS_P2;PMS_P1;PMS_P2;Temp;Humidity;BMP_temperature;BMP_pressure;BME280_temperature;BME280_humidity;BME280_pressure;Samples;Min_cycle;Max_cycle;Signal;HPM_P1;HPM_P2
2022/01/02 00:07:30;;;;;;;5.53;3.27;;;;;;;2.87;100.00;99650.41;31208941;28;20140;-82
2022/01/02 00:22:37;;;;;;;6.27;2.83;;;;;;;2.78;100.00;99660.72;31213566;28;20042;-83
2022/01/02 00:37:40;;;;;;;5.90;3.13;;;;;;;2.70;100.00;99680.56;31203644;28;20459;-82
2022/01/02 00:52:45;;;;;;;4.83;2.70;;;;;;;2.52;100.00;99677.03;31194816;28;20060;-82
2022/01/02 01:07:50;;;;;;;4.53;2.80;;;;;;;2.56;100.00;99696.59;31200517;28;20049;-83
2022/01/02 01:22:52;;;;;;;4.77;2.77;;;;;;;2.47;100.00;99715.66;31204085;28;20133;-82
2022/01/02 01:37:54;;;;;;;5.73;2.97;;;;;;;2.46;100.00;99710.69;31189457;28;20124;-82
2022/01/02 01:52:56;;;;;;;6.97;2.97;;;;;;;2.39;100.00;99722.88;31228046;28;20211;-81
2022/01/02 02:08:04;;;;;;;5.43;2.73;;;;;;;2.29;100.00;99736.19;31201393;28;20095;-81
2022/01/02 02:23:06;;;;;;;5.13;2.83;;;;;;;2.28;100.00;99743.47;31189559;28;20149;-80
2022/01/02 02:38:10;;;;;;;4.47;2.90;;;;;;;2.25;100.00;99744.19;31179405;28;20093;-81
2022/01/02 02:53:14;;;;;;;3.30;2.20;;;;;;;2.23;100.00;99757.19;31201294;28;20060;-81
2022/01/02 03:08:16;;;;;;;2.27;2.03;;;;;;;2.17;100.00;99774.72;31188594;28;20050;-82
2022/01/02 03:23:18;;;;;;;4.30;2.00;;;;;;;2.11;100.00;99803.00;31142585;28;20047;-82
2022/01/02 03:38:20;;;;;;;2.37;1.87;;;;;;;2.06;100.00;99827.44;31191903;28;20045;-83
2022/01/02 03:53:22;;;;;;;3.70;2.03;;;;;;;1.97;100.00;99861.75;31210955;28;20150;-82
2022/01/02 04:08:24;;;;;;;3.77;1.80;;;;;;;1.87;100.00;99875.81;31181311;28;20057;-82
2022/01/02 04:23:26;;;;;;;4.37;2.70;;;;;;;1.68;100.00;99903.47;31232776;28;20125;-83
2022/01/02 04:38:27;;;;;;;6.67;3.30;;;;;;;1.75;100.00;99924.97;31187384;28;20495;-82
2022/01/02 04:53:30;;;;;;;11.07;4.03;;;;;;;1.76;100.00;99968.56;31195560;28;20048;-84
2022/01/02 05:08:32;;;;;;;4.03;2.50;;;;;;;1.66;100.00;99973.38;31183406;28;20072;-83
2022/01/02 05:23:34;;;;;;;14.83;4.57;;;;;;;1.64;100.00;100028.44;31172575;28;20674;-83
2022/01/02 05:38:36;;;;;;;13.43;5.00;;;;;;;1.62;100.00;100065.47;31201869;28;20084;-83
2022/01/02 05:53:38;;;;;;;7.17;3.67;;;;;;;1.56;100.00;100109.72;31205308;28;20046;-83
2022/01/02 06:08:40;;;;;;;4.13;2.93;;;;;;;1.41;100.00;100140.81;31190336;28;20400;-84
2022/01/02 06:23:42;;;;;;;4.80;2.23;;;;;;;1.40;98.45;100182.06;31196923;28;20054;-83
2022/01/02 06:38:44;;;;;;;1.00;0.90;;;;;;;1.25;97.97;100218.44;31169720;28;20077;-85
2022/01/02 06:53:46;;;;;;;1.60;1.30;;;;;;;1.11;94.45;100244.91;31168670;28;20045;-83
2022/01/02 07:08:48;;;;;;;4.43;2.80;;;;;;;1.19;97.07;100283.25;31209865;28;20103;-83
2022/01/02 07:23:52;;;;;;;3.50;2.60;;;;;;;3.89;85.32;100292.84;31183417;28;20427;-82
2022/01/02 07:38:53;;;;;;;4.50;2.17;;;;;;;7.97;59.41;100314.63;31198608;28;20050;-83
2022/01/02 07:53:55;;;;;;;4.77;2.10;;;;;;;4.18;78.89;100353.78;31179173;28;20459;-84
2022/01/02 08:08:57;;;;;;;5.43;2.77;;;;;;;3.07;76.67;100375.03;31180389;28;20081;-85
2022/01/02 08:23:59;;;;;;;9.63;3.47;;;;;;;2.84;78.58;100393.81;31195893;28;20132;-84
2022/01/02 08:39:02;;;;;;;5.03;2.20;;;;;;;2.61;78.35;100409.88;31176379;28;20161;-79
2022/01/02 08:54:05;;;;;;;3.27;2.07;;;;;;;2.24;71.77;100447.13;31201662;28;20052;-83
2022/01/02 09:09:07;;;;;;;2.70;1.80;;;;;;;2.72;74.74;100452.97;31199101;28;20064;-82
2022/01/02 09:24:09;;;;;;;2.87;1.30;;;;;;;5.49;59.36;100429.38;31202166;28;20042;-82
2022/01/02 09:39:11;;;;;;;2.00;1.27;;;;;;;5.99;51.09;100459.31;31178436;28;20139;-87
2022/01/02 09:54:13;;;;;;;1.23;1.00;;;;;;;7.44;49.10;100458.81;31181092;28;20057;-84
2022/01/02 10:09:30;;;;;;;2.27;1.20;;;;;;;5.76;54.71;100492.66;31196086;28;20140;-83
2022/01/02 10:24:37;;;;;;;1.70;1.33;;;;;;;4.37;61.13;100516.78;31192999;28;20045;-84
2022/01/02 10:39:40;;;;;;;1.57;1.00;;;;;;;5.78;49.00;100522.69;31219572;28;20144;-80
2022/01/02 10:54:42;;;;;;;2.30;1.70;;;;;;;3.60;58.88;100542.19;31203087;28;20058;-83
2022/01/02 11:09:44;;;;;;;1.47;1.37;;;;;;;2.11;63.97;100568.91;31211900;28;20080;-87
2022/01/02 11:25:12;;;;;;;2.50;1.40;;;;;;;1.73;62.49;100588.31;31196290;28;20422;-76
2022/01/02 11:40:14;;;;;;;2.90;2.03;;;;;;;1.97;60.69;100622.16;31177668;28;20140;-78
2022/01/02 11:55:16;;;;;;;2.50;1.40;;;;;;;4.60;53.10;100622.31;31182936;28;20065;-77
2022/01/02 12:10:19;;;;;;;1.30;1.20;;;;;;;5.16;46.04;100664.50;31200803;28;20056;-78
2022/01/02 12:25:23;;;;;;;3.03;1.23;;;;;;;3.39;53.76;100689.47;31198266;28;20487;-81
2022/01/02 12:40:25;;;;;;;5.07;1.90;;;;;;;3.41;50.03;100703.31;31219950;28;20056;-81
2022/01/02 12:55:29;;;;;;;3.30;1.70;;;;;;;1.34;60.47;100726.47;31188448;28;20124;-79
2022/01/02 13:10:31;;;;;;;1.97;1.77;;;;;;;0.62;63.29;100744.22;31179344;28;20053;-78
2022/01/02 13:25:42;;;;;;;17.90;6.67;;;;;;;0.32;62.91;100775.72;31229113;28;20072;-80
2022/01/02 13:40:47;;;;;;;5.37;2.47;;;;;;;-0.29;64.73;100780.16;31221880;28;20511;-79
2022/01/02 13:56:10;;;;;;;3.50;2.27;;;;;;;-0.74;64.12;100783.53;31186954;28;20053;-81
2022/01/02 14:11:13;;;;;;;2.97;1.90;;;;;;;-0.80;70.54;100800.81;31213827;28;20133;-82
2022/01/02 14:26:27;;;;;;;17.57;8.03;;;;;;;-1.02;65.46;100846.41;31189257;28;20049;-81
2022/01/02 14:41:28;;;;;;;4.00;2.07;;;;;;;-1.42;67.05;100860.09;31200628;28;20045;-82
2022/01/02 14:56:30;;;;;;;3.03;2.03;;;;;;;-1.69;67.75;100849.81;31242260;28;20045;-86
2022/01/02 15:11:32;;;;;;;3.10;2.20;;;;;;;-1.96;67.00;100843.78;31238285;28;20054;-88
2022/01/02 15:26:34;;;;;;;9.73;4.67;;;;;;;-2.04;68.47;100854.41;31210294;28;20443;-86
2022/01/02 15:41:36;;;;;;;4.17;2.77;;;;;;;-1.93;67.10;100875.09;31166313;28;20092;-84
2022/01/02 15:56:39;;;;;;;4.60;2.97;;;;;;;-1.90;67.81;100887.75;31194224;28;20136;-81
2022/01/02 16:11:41;;;;;;;7.97;2.60;;;;;;;-1.93;67.96;100899.03;31205946;28;20132;-87
2022/01/02 16:26:43;;;;;;;8.10;4.27;;;;;;;-1.94;69.36;100912.66;31205442;28;20566;-87
2022/01/02 16:41:45;;;;;;;8.20;4.13;;;;;;;-2.08;69.11;100902.16;31231111;28;20497;-91
2022/01/02 16:56:46;;;;;;;12.17;6.57;;;;;;;-2.33;70.76;100913.56;31198452;28;20422;-86
2022/01/02 17:11:50;;;;;;;14.83;6.97;;;;;;;-2.44;69.83;100911.22;31190543;28;20057;-84
2022/01/02 17:26:52;;;;;;;17.50;6.20;;;;;;;-2.35;71.14;100899.78;31154659;28;20050;-86
2022/01/02 17:41:57;;;;;;;11.77;5.40;;;;;;;-2.38;70.44;100919.06;31253945;28;20057;-86
2022/01/02 17:56:59;;;;;;;4.80;3.57;;;;;;;-2.30;69.01;100895.09;31209565;28;20085;-86
2022/01/02 18:12:02;;;;;;;4.93;2.47;;;;;;;-2.22;69.35;100936.13;31224849;28;20140;-87
2022/01/02 18:27:05;;;;;;;3.07;2.77;;;;;;;-1.96;69.25;100912.19;31233027;28;20491;-87
2022/01/02 18:42:07;;;;;;;5.13;3.07;;;;;;;-2.00;70.02;100861.47;31263228;28;20156;-87
2022/01/02 18:57:09;;;;;;;4.00;3.23;;;;;;;-1.96;70.67;100898.88;31228705;28;20081;-85
2022/01/02 19:12:12;;;;;;;5.80;4.03;;;;;;;-1.99;73.18;100863.03;31250874;28;20065;-86
2022/01/02 19:27:14;;;;;;;6.80;3.60;;;;;;;-1.99;72.14;100860.38;31182637;28;20132;-88
2022/01/02 19:42:19;;;;;;;3.10;2.73;;;;;;;-1.95;69.87;100839.22;31179203;28;20053;-84
2022/01/02 19:57:21;;;;;;;7.63;4.57;;;;;;;-2.13;72.68;100841.16;31192534;28;20054;-85
2022/01/02 20:12:56;;;;;;;8.20;4.90;;;;;;;-2.28;73.22;100849.59;31175446;28;20081;-85
2022/01/02 20:28:00;;;;;;;8.27;4.70;;;;;;;-2.55;75.64;100846.13;31186760;28;20566;-86
2022/01/02 20:43:19;;;;;;;13.77;6.70;;;;;;;-2.68;75.84;100841.75;31290918;28;20053;-86
2022/01/02 20:58:21;;;;;;;9.03;4.50;;;;;;;-2.71;78.72;100815.78;31240737;28;20053;-83
2022/01/02 21:13:27;;;;;;;;;;;;;;;-2.69;74.22;100800.31;31231207;28;20053;-85
2022/01/02 21:28:49;;;;;;;11.57;4.93;;;;;;;-2.75;79.40;100799.69;31192331;28;19989;-86
2022/01/02 21:43:51;;;;;;;8.40;4.93;;;;;;;-3.08;80.04;100779.19;31229509;28;20046;-86
2022/01/02 21:58:53;;;;;;;7.57;4.33;;;;;;;-3.14;77.97;100768.72;31212421;28;20057;-86
2022/01/02 22:13:55;;;;;;;7.27;4.00;;;;;;;-3.14;79.90;100750.13;31249239;28;20061;-86
2022/01/02 22:29:05;;;;;;;4.70;3.10;;;;;;;-3.31;81.97;100720.09;31201659;28;20086;-86
2022/01/02 22:44:07;;;;;;;4.10;3.00;;;;;;;-3.34;84.39;100694.94;31207222;28;20049;-85
2022/01/02 22:59:11;;;;;;;6.20;4.33;;;;;;;-3.29;84.14;100700.09;31199819;28;20128;-86
2022/01/02 23:14:15;;;;;;;8.27;2.80;;;;;;;-3.47;85.90;100659.47;31188404;28;20084;-86
2022/01/02 23:29:17;;;;;;;4.77;3.33;;;;;;;-3.66;85.08;100650.22;31185665;28;20050;-86
2022/01/02 23:44:20;;;;;;;5.97;3.83;;;;;;;-3.58;87.53;100646.81;31199300;28;20049;-84
2022/01/02 23:59:22;;;;;;;6.63;3.83;;;;;;;-3.58;87.24;100622.94;31179133;28;20136;-84
